Time;durP1;ratioP1;P1;durP2;ratioP2;P2;SDS_P1;SDS_P2;PMS_P1;PMS_P2;Temp;Humidity;BMP_temperature;BMP_pressure;BME280_temperature;BME280_humidity;BME280_pressure;Samples;Min_cycle;Max_cycle;Signal;HPM_P1;HPM_P2
2024/02/24 00:02:01;;;;;;;2.45;0.82;;;3.70;99.90;;;;;;5006721;28;20484;-82
2024/02/24 00:04:28;;;;;;;2.17;0.75;;;3.50;99.90;;;;;;5010545;28;20033;-81
2024/02/24 00:06:55;;;;;;;0.80;0.60;;;3.30;99.90;;;;;;5008841;28;20380;-81
2024/02/24 00:09:20;;;;;;;1.38;0.63;;;3.40;99.90;;;;;;5009540;28;20058;-81
2024/02/24 00:11:46;;;;;;;1.17;0.55;;;3.40;99.90;;;;;;5012175;28;20041;-80
2024/02/24 00:14:12;;;;;;;0.90;0.40;;;3.50;99.90;;;;;;5011789;28;20091;-81
2024/02/24 00:16:37;;;;;;;0.98;0.40;;;3.40;99.90;;;;;;5008931;28;20025;-82
2024/02/24 00:19:03;;;;;;;0.93;0.30;;;3.30;99.90;;;;;;5011757;28;20477;-82
2024/02/24 00:21:29;;;;;;;0.73;0.40;;;3.30;99.90;;;;;;5010583;28;20037;-82
2024/02/24 00:23:54;;;;;;;1.08;0.47;;;3.40;99.90;;;;;;5012607;28;20038;-82
2024/02/24 00:26:20;;;;;;;2.38;0.50;;;3.50;99.90;;;;;;5011049;28;20032;-81
2024/02/24 00:28:45;;;;;;;1.17;0.60;;;3.40;99.90;;;;;;5010084;28;20521;-81
2024/02/24 00:31:12;;;;;;;1.52;0.60;;;3.40;99.90;;;;;;5011862;28;21339;-81
2024/02/24 00:33:38;;;;;;;1.23;0.35;;;3.50;99.90;;;;;;5011203;28;20052;-81
2024/02/24 00:36:04;;;;;;;0.77;0.30;;;3.20;99.90;;;;;;5010955;28;20578;-81
2024/02/24 00:38:29;;;;;;;0.32;0.20;;;3.20;99.90;;;;;;5011839;28;20033;-82
2024/02/24 00:40:55;;;;;;;0.73;0.30;;;3.30;99.90;;;;;;5008270;28;20602;-82
2024/02/24 00:43:21;;;;;;;0.40;0.40;;;3.20;99.90;;;;;;5009538;28;20041;-81
2024/02/24 00:45:47;;;;;;;1.33;0.80;;;3.30;99.90;;;;;;5010880;28;20575;-82
2024/02/24 00:48:13;;;;;;;1.48;0.90;;;3.30;99.90;;;;;;5012199;28;20120;-81
2024/02/24 00:50:38;;;;;;;1.45;0.82;;;3.30;99.90;;;;;;5006412;28;20871;-82
2024/02/24 00:53:05;;;;;;;2.35;1.13;;;3.10;99.90;;;;;;5008999;28;20038;-81
2024/02/24 00:55:31;;;;;;;1.48;0.90;;;3.00;99.90;;;;;;5011421;28;20041;-81
2024/02/24 00:57:56;;;;;;;3.08;1.50;;;2.90;99.90;;;;;;5015700;28;20754;-82
2024/02/24 01:00:22;;;;;;;2.80;1.10;;;2.80;99.90;;;;;;5015855;28;20037;-81
2024/02/24 01:02:48;;;;;;;1.63;0.93;;;2.80;99.90;;;;;;5016913;28;20033;-81
2024/02/24 01:05:13;;;;;;;1.92;0.80;;;2.80;99.90;;;;;;5016032;28;20061;-82
2024/02/24 01:07:39;;;;;;;2.38;1.05;;;2.80;99.90;;;;;;5013589;28;20459;-82
2024/02/24 01:10:05;;;;;;;2.00;0.98;;;2.80;99.90;;;;;;5012694;28;20062;-81
2024/02/24 01:12:31;;;;;;;1.85;0.75;;;2.80;99.90;;;;;;5015283;28;20373;-82
2024/02/24 01:14:56;;;;;;;1.45;0.77;;;3.00;99.90;;;;;;5014208;28;20086;-82
2024/02/24 01:17:22;;;;;;;2.42;1.05;;;2.90;99.90;;;;;;5015435;28;20038;-81
2024/02/24 01:19:48;;;;;;;1.92;1.10;;;2.90;99.90;;;;;;5016574;28;20133;-81
2024/02/24 01:22:13;;;;;;;2.22;1.23;;;3.00;99.90;;;;;;5014359;28;20083;-81
2024/02/24 01:24:39;;;;;;;2.92;1.10;;;2.90;99.90;;;;;;5015931;28;20030;-81
2024/02/24 01:27:05;;;;;;;2.42;1.05;;;3.00;99.90;;;;;;5015190;28;20036;-81
2024/02/24 01:29:31;;;;;;;1.10;0.68;;;2.80;99.90;;;;;;5018928;28;20072;-81
2024/02/24 01:32:00;;;;;;;1.00;0.50;;;2.60;99.90;;;;;;5019794;28;20099;-81
2024/02/24 01:34:27;;;;;;;2.50;1.00;;;2.40;99.90;;;;;;5020207;28;20041;-81
2024/02/24 01:36:53;;;;;;;1.20;0.70;;;2.50;99.90;;;;;;5019272;28;20033;-81
2024/02/24 01:39:18;;;;;;;1.30;0.50;;;2.40;99.90;;;;;;5018441;28;20033;-80
2024/02/24 01:41:45;;;;;;;1.00;0.55;;;2.40;99.90;;;;;;5018860;28;20084;-81
2024/02/24 01:44:11;;;;;;;1.30;0.73;;;2.40;99.90;;;;;;5019549;28;20109;-81
2024/02/24 01:46:36;;;;;;;0.85;0.50;;;2.40;99.90;;;;;;5017864;28;20099;-81
2024/02/24 01:49:02;;;;;;;1.23;0.70;;;2.40;99.90;;;;;;5017939;28;20414;-80
2024/02/24 01:51:28;;;;;;;1.38;0.63;;;2.60;99.90;;;;;;5018143;28;20099;-80
2024/02/24 01:53:54;;;;;;;1.48;0.60;;;2.70;99.90;;;;;;5015581;28;20068;-81
2024/02/24 01:56:23;;;;;;;1.08;0.65;;;2.40;99.90;;;;;;5018298;28;20029;-83
2024/02/24 01:58:49;;;;;;;1.65;0.82;;;2.30;99.90;;;;;;5016867;28;21437;-80
2024/02/24 02:01:16;;;;;;;2.15;0.90;;;2.40;99.90;;;;;;5016893;28;20222;-81
2024/02/24 02:03:42;;;;;;;1.55;0.80;;;2.50;99.90;;;;;;5018655;28;20037;-80
2024/02/24 02:06:08;;;;;;;3.90;1.20;;;2.50;99.90;;;;;;5017189;28;20037;-81
2024/02/24 02:08:34;;;;;;;1.85;1.00;;;2.70;99.90;;;;;;5017376;28;20053;-81
2024/02/24 02:11:00;;;;;;;0.80;0.50;;;2.70;99.90;;;;;;5017300;28;20041;-81
2024/02/24 02:13:25;;;;;;;2.13;0.75;;;2.70;99.90;;;;;;5017989;28;20030;-82
2024/02/24 02:15:56;;;;;;;1.77;0.80;;;2.70;99.90;;;;;;5019154;28;20072;-83
2024/02/24 02:18:22;;;;;;;1.38;0.70;;;2.80;99.90;;;;;;5016839;28;20452;-82
2024/02/24 02:20:51;;;;;;;1.38;0.88;;;3.00;99.90;;;;;;5017148;28;20041;-80
2024/02/24 02:23:17;;;;;;;1.67;0.80;;;3.20;99.90;;;;;;5017492;28;20038;-81
2024/02/24 02:25:43;;;;;;;1.48;0.70;;;3.40;99.90;;;;;;5016753;28;20084;-81
2024/02/24 02:28:09;;;;;;;1.45;0.85;;;3.40;99.90;;;;;;5018154;28;20112;-82
2024/02/24 02:30:35;;;;;;;1.58;0.80;;;3.40;99.90;;;;;;5017600;28;20045;-80
2024/02/24 02:33:01;;;;;;;3.40;1.60;;;3.40;99.90;;;;;;5018413;28;20040;-81
2024/02/24 02:35:27;;;;;;;4.22;1.52;;;3.50;99.90;;;;;;5017054;28;20436;-81
2024/02/24 02:37:53;;;;;;;2.80;1.60;;;3.50;99.90;;;;;;5017311;28;20033;-81
2024/02/24 02:40:19;;;;;;;2.20;1.35;;;3.40;99.90;;;;;;5016602;28;20083;-81
2024/02/24 02:42:45;;;;;;;1.35;0.85;;;3.30;99.90;;;;;;5018119;28;20045;-81
2024/02/24 02:45:11;;;;;;;2.03;0.75;;;3.10;99.90;;;;;;5018599;28;20041;-81
2024/02/24 02:47:39;;;;;;;1.23;0.80;;;3.00;99.90;;;;;;5017331;28;20026;-82
2024/02/24 02:50:07;;;;;;;1.83;0.80;;;2.90;99.90;;;;;;5017057;28;20128;-81
2024/02/24 02:52:33;;;;;;;1.65;0.90;;;2.90;99.90;;;;;;5017320;28;20493;-81
2024/02/24 02:54:58;;;;;;;1.88;0.98;;;2.90;99.90;;;;;;5017052;28;20026;-81
2024/02/24 02:57:24;;;;;;;2.70;1.55;;;3.00;99.90;;;;;;5017844;28;20037;-80
2024/02/24 02:59:50;;;;;;;3.67;2.10;;;3.10;99.90;;;;;;5018304;28;20083;-80
2024/02/24 03:02:15;;;;;;;2.80;1.33;;;3.20;99.90;;;;;;5018631;28;20025;-81
2024/02/24 03:04:41;;;;;;;3.00;1.30;;;3.00;99.90;;;;;;5018591;28;20026;-81
2024/02/24 03:07:07;;;;;;;1.75;0.98;;;3.00;99.90;;;;;;5015187;28;20032;-80
2024/02/24 03:09:33;;;;;;;2.03;1.08;;;3.00;99.90;;;;;;5015661;28;20060;-80
2024/02/24 03:11:58;;;;;;;2.55;1.10;;;3.00;99.90;;;;;;5016804;28;20108;-81
2024/02/24 03:14:24;;;;;;;2.40;1.35;;;2.90;99.90;;;;;;5015359;28;20045;-81
2024/02/24 03:16:50;;;;;;;3.22;1.55;;;2.90;99.90;;;;;;5015575;28;20041;-81
2024/02/24 03:19:15;;;;;;;3.30;1.73;;;3.00;99.90;;;;;;5017323;28;20102;-81
2024/02/24 03:21:41;;;;;;;3.30;1.85;;;2.70;99.90;;;;;;5014038;28;20040;-80
2024/02/24 03:24:07;;;;;;;4.53;2.70;;;2.80;99.90;;;;;;5016233;28;20067;-82
2024/02/24 03:26:33;;;;;;;4.00;2.25;;;2.80;99.90;;;;;;5016190;28;20083;-82
2024/02/24 03:28:59;;;;;;;3.83;1.90;;;2.90;99.90;;;;;;5015626;28;20053;-80
2024/02/24 03:31:25;;;;;;;2.10;1.20;;;2.90;99.90;;;;;;5016772;28;20079;-81
2024/02/24 03:33:53;;;;;;;2.42;1.30;;;2.80;99.90;;;;;;5015973;28;20113;-81
2024/02/24 03:36:19;;;;;;;3.60;1.40;;;2.80;99.90;;;;;;5016187;28;20087;-81
2024/02/24 03:38:46;;;;;;;2.60;1.38;;;2.70;99.90;;;;;;5015033;28;20099;-80
2024/02/24 03:41:12;;;;;;;2.60;1.25;;;2.70;99.90;;;;;;5017108;28;20519;-81
2024/02/24 03:43:38;;;;;;;2.35;1.17;;;2.70;99.90;;;;;;5014321;28;20048;-81
2024/02/24 03:46:05;;;;;;;1.40;0.70;;;2.50;99.90;;;;;;5015044;28;20041;-80
2024/02/24 03:48:32;;;;;;;2.30;1.05;;;2.20;99.90;;;;;;5015101;28;20041;-81
2024/02/24 03:50:59;;;;;;;1.58;0.80;;;2.20;99.90;;;;;;5013736;28;20487;-81
2024/02/24 03:53:26;;;;;;;1.90;0.88;;;2.40;99.90;;;;;;5013883;28;20037;-81
2024/02/24 03:55:52;;;;;;;2.28;1.15;;;2.20;99.90;;;;;;5016166;28;20041;-81
2024/02/24 03:58:18;;;;;;;1.58;1.00;;;2.20;99.90;;;;;;5016302;28;20100;-81
2024/02/24 04:00:44;;;;;;;2.13;1.00;;;2.20;99.90;;;;;;5015416;28;20044;-80
2024/02/24 04:03:10;;;;;;;0.93;0.60;;;2.30;99.90;;;;;;5012293;28;20100;-80
2024/02/24 04:05:37;;;;;;;1.58;0.80;;;2.40;99.90;;;;;;5011689;28;20096;-80
2024/02/24 04:08:03;;;;;;;1.38;0.70;;;2.20;99.90;;;;;;5010365;28;20882;-81
2024/02/24 04:10:29;;;;;;;1.20;0.60;;;2.20;99.90;;;;;;5012433;28;20060;-80
2024/02/24 04:12:55;;;;;;;1.45;0.77;;;2.20;99.90;;;;;;5010449;28;20083;-80
2024/02/24 04:15:21;;;;;;;1.52;0.75;;;2.30;99.90;;;;;;5009549;28;20030;-82
2024/02/24 04:17:47;;;;;;;2.20;0.93;;;2.40;99.90;;;;;;5009042;28;20038;-82
2024/02/24 04:20:14;;;;;;;1.48;0.80;;;2.30;99.90;;;;;;5008860;28;20042;-82
2024/02/24 04:22:40;;;;;;;1.13;0.50;;;2.30;99.90;;;;;;5006089;28;20460;-82
2024/02/24 04:25:07;;;;;;;0.65;0.40;;;2.30;99.90;;;;;;5010980;28;20037;-82
2024/02/24 04:27:33;;;;;;;1.45;0.80;;;2.30;99.90;;;;;;5012130;28;20033;-82
2024/02/24 04:29:59;;;;;;;2.95;0.90;;;2.40;99.90;;;;;;5010682;28;20111;-82
2024/02/24 04:32:24;;;;;;;1.67;0.82;;;2.50;99.90;;;;;;5009163;28;21280;-81
2024/02/24 04:34:50;;;;;;;1.55;0.65;;;2.50;99.90;;;;;;5007995;28;20029;-82
2024/02/24 04:37:16;;;;;;;0.88;0.45;;;2.40;99.90;;;;;;5009556;28;20040;-80
2024/02/24 04:39:41;;;;;;;1.05;0.65;;;2.20;99.90;;;;;;5007369;28;20543;-81
2024/02/24 04:42:07;;;;;;;0.85;0.50;;;2.20;99.90;;;;;;5009133;28;20063;-81
2024/02/24 04:44:33;;;;;;;0.50;0.30;;;2.20;99.90;;;;;;5007531;28;20036;-82
2024/02/24 04:46:59;;;;;;;1.15;0.65;;;2.20;99.90;;;;;;5007394;28;20467;-82
2024/02/24 04:49:24;;;;;;;1.02;0.52;;;2.10;99.90;;;;;;5007953;28;20096;-82
2024/02/24 04:51:50;;;;;;;1.08;0.50;;;2.20;99.90;;;;;;5010151;28;20032;-81
2024/02/24 04:54:18;;;;;;;1.33;0.70;;;2.30;99.90;;;;;;5010744;28;20420;-82
2024/02/24 04:56:44;;;;;;;1.27;0.63;;;2.30;99.90;;;;;;5007229;28;21166;-82
2024/02/24 04:59:10;;;;;;;1.80;0.73;;;2.50;99.90;;;;;;5007884;28;20041;-82
2024/02/24 05:01:35;;;;;;;1.90;0.93;;;2.70;99.90;;;;;;5008279;28;20132;-81
2024/02/24 05:04:02;;;;;;;2.47;1.13;;;2.80;99.90;;;;;;5006058;28;20120;-81
2024/02/24 05:06:28;;;;;;;1.40;0.80;;;3.00;99.90;;;;;;5007303;28;20571;-82
2024/02/24 05:08:56;;;;;;;1.77;0.95;;;3.10;99.90;;;;;;5008841;28;20041;-82
2024/02/24 05:11:22;;;;;;;1.63;0.93;;;3.10;99.90;;;;;;5008122;28;21040;-82
2024/02/24 05:13:48;;;;;;;2.22;1.10;;;3.20;99.90;;;;;;5007170;28;20047;-81
2024/02/24 05:16:14;;;;;;;1.45;0.75;;;3.20;99.90;;;;;;5007497;28;20091;-82
2024/02/24 05:18:40;;;;;;;1.25;0.68;;;3.10;99.90;;;;;;5006696;28;20044;-81
2024/02/24 05:21:06;;;;;;;1.65;0.90;;;2.90;99.90;;;;;;5007165;28;20108;-82
2024/02/24 05:23:32;;;;;;;1.35;0.73;;;2.90;99.90;;;;;;5009315;28;20116;-81
2024/02/24 05:25:58;;;;;;;4.47;1.95;;;2.90;99.90;;;;;;5007292;28;20029;-82
2024/02/24 05:28:23;;;;;;;7.65;4.13;;;3.00;99.90;;;;;;5007328;28;20037;-81
2024/02/24 05:30:49;;;;;;;6.30;3.78;;;3.10;99.90;;;;;;5008637;28;20026;-82
2024/02/24 05:33:15;;;;;;;5.20;2.95;;;3.10;99.90;;;;;;5006788;28;20483;-81
2024/02/24 05:35:41;;;;;;;4.47;2.25;;;3.00;99.90;;;;;;5006187;28;20440;-82
2024/02/24 05:38:07;;;;;;;3.22;1.90;;;3.00;99.90;;;;;;5007860;28;20125;-80
2024/02/24 05:40:32;;;;;;;3.58;2.00;;;3.10;99.90;;;;;;5006051;28;20419;-82
2024/02/24 05:42:58;;;;;;;3.15;1.92;;;3.10;99.90;;;;;;5006884;28;20154;-81
2024/02/24 05:45:24;;;;;;;3.55;1.80;;;3.20;99.90;;;;;;5008704;28;20041;-81
2024/02/24 05:47:49;;;;;;;3.15;1.60;;;3.10;99.90;;;;;;5006521;28;20037;-79
2024/02/24 05:50:15;;;;;;;2.97;1.33;;;3.00;99.90;;;;;;5006301;28;21676;-81
2024/02/24 05:52:41;;;;;;;3.85;1.00;;;3.00;99.90;;;;;;5007675;28;20065;-81
2024/02/24 05:55:09;;;;;;;2.75;1.23;;;3.00;99.90;;;;;;5007032;28;20033;-82
2024/02/24 05:57:35;;;;;;;4.68;2.97;;;3.00;99.90;;;;;;5006232;28;20037;-81
2024/02/24 06:00:04;;;;;;;7.10;4.13;;;3.00;99.90;;;;;;5009181;28;20045;-80
2024/02/24 06:02:30;;;;;;;5.00;3.00;;;2.80;99.90;;;;;;5005279;28;20038;-79
2024/02/24 06:04:55;;;;;;;3.35;1.77;;;2.70;99.90;;;;;;5009240;28;20028;-81
2024/02/24 06:07:21;;;;;;;3.67;1.90;;;2.60;99.90;;;;;;5007009;28;20048;-80
2024/02/24 06:09:47;;;;;;;3.33;1.70;;;2.50;99.90;;;;;;5007192;28;20137;-79
2024/02/24 06:12:12;;;;;;;3.53;1.80;;;2.50;99.90;;;;;;5006480;28;20045;-80
2024/02/24 06:14:38;;;;;;;1.05;0.70;;;2.50;99.90;;;;;;5009905;28;20037;-79
2024/02/24 06:17:03;;;;;;;2.00;0.95;;;2.50;99.90;;;;;;5011318;28;20033;-80
2024/02/24 06:19:29;;;;;;;2.72;1.25;;;2.60;99.90;;;;;;5010680;28;20029;-80
2024/02/24 06:21:55;;;;;;;1.45;0.77;;;2.50;99.90;;;;;;5011365;28;20064;-80
2024/02/24 06:24:20;;;;;;;1.77;0.98;;;2.40;99.90;;;;;;5011047;28;20454;-80
2024/02/24 06:26:46;;;;;;;2.95;1.42;;;2.40;99.90;;;;;;5012341;28;20029;-80
2024/02/24 06:29:15;;;;;;;3.47;1.90;;;2.60;99.90;;;;;;5011040;28;20046;-80
2024/02/24 06:31:41;;;;;;;3.78;1.40;;;2.70;99.90;;;;;;5011844;28;20104;-80
2024/02/24 06:34:07;;;;;;;2.28;1.33;;;2.70;99.90;;;;;;5007575;28;20510;-80
2024/02/24 06:36:33;;;;;;;3.78;1.83;;;2.60;99.90;;;;;;5007813;28;20037;-80
2024/02/24 06:38:58;;;;;;;6.10;3.45;;;2.60;99.90;;;;;;5011577;28;21450;-80
2024/02/24 06:41:24;;;;;;;3.90;2.08;;;2.90;99.90;;;;;;5009215;28;20046;-79
2024/02/24 06:43:51;;;;;;;3.17;1.50;;;3.00;99.90;;;;;;5009518;28;20376;-79
2024/02/24 06:46:17;;;;;;;2.00;1.00;;;3.00;99.90;;;;;;5008303;28;20091;-77
2024/02/24 06:48:43;;;;;;;3.50;1.90;;;3.10;99.90;;;;;;5013220;28;20479;-79
2024/02/24 06:51:08;;;;;;;4.95;2.90;;;3.20;99.90;;;;;;5016620;28;20107;-79
2024/02/24 06:53:34;;;;;;;5.20;2.92;;;3.30;99.90;;;;;;5012289;28;20033;-78
2024/02/24 06:56:08;;;;;;;4.22;2.40;;;3.30;99.90;;;;;;5008496;28;20079;-79
2024/02/24 06:58:35;;;;;;;4.65;1.88;;;3.40;99.90;;;;;;5006686;28;20044;-79
2024/02/24 07:01:01;;;;;;;2.75;1.52;;;3.40;99.90;;;;;;5005669;28;20592;-80
2024/02/24 07:03:26;;;;;;;4.25;2.28;;;3.40;99.90;;;;;;5005256;28;20038;-79
2024/02/24 07:05:52;;;;;;;5.55;2.03;;;3.40;99.90;;;;;;5006326;28;20387;-79
2024/02/24 07:08:18;;;;;;;5.95;4.03;;;3.30;99.90;;;;;;5009073;28;20017;-77
2024/02/24 07:10:43;;;;;;;5.60;3.50;;;3.60;99.90;;;;;;5009267;28;20038;-79
2024/02/24 07:13:09;;;;;;;4.80;2.60;;;3.80;99.90;;;;;;5009225;28;20040;-77
2024/02/24 07:15:35;;;;;;;4.25;2.00;;;3.70;99.90;;;;;;5015243;28;20519;-77
2024/02/24 07:18:00;;;;;;;2.90;1.38;;;3.70;99.90;;;;;;5008720;28;20796;-77
2024/02/24 07:20:26;;;;;;;2.70;1.45;;;3.60;99.90;;;;;;5008175;28;20136;-80
2024/02/24 07:22:52;;;;;;;6.60;2.70;;;3.70;99.90;;;;;;5012261;28;20026;-80
2024/02/24 07:25:17;;;;;;;6.20;3.65;;;3.70;99.90;;;;;;5011412;28;21335;-80
2024/02/24 07:27:43;;;;;;;5.43;2.90;;;3.80;99.90;;;;;;5012086;28;20040;-80
2024/02/24 07:30:09;;;;;;;10.43;2.95;;;3.90;99.90;;;;;;5024667;28;20626;-79
2024/02/24 07:32:35;;;;;;;6.40;3.58;;;4.00;99.90;;;;;;5012867;28;20038;-80
2024/02/24 07:35:00;;;;;;;7.05;3.90;;;4.20;99.90;;;;;;5007613;28;20041;-80
2024/02/24 07:37:26;;;;;;;6.30;3.67;;;4.10;99.90;;;;;;5009068;28;20090;-80
2024/02/24 07:39:52;;;;;;;9.00;4.25;;;4.10;99.90;;;;;;5008234;28;20033;-81
2024/02/24 07:42:17;;;;;;;10.18;4.95;;;4.10;99.90;;;;;;5007955;28;20033;-81
2024/02/24 07:44:43;;;;;;;9.55;6.63;;;4.40;99.90;;;;;;5009548;28;20077;-80
2024/02/24 07:47:08;;;;;;;8.98;5.70;;;4.50;99.90;;;;;;5008113;28;21474;-80
2024/02/24 07:49:35;;;;;;;7.97;5.07;;;4.60;99.90;;;;;;5005880;28;20049;-80
2024/02/24 07:52:01;;;;;;;5.07;3.40;;;4.60;99.90;;;;;;5005532;28;20095;-80
2024/02/24 07:54:27;;;;;;;5.32;3.58;;;4.60;99.90;;;;;;5005779;28;20038;-80
2024/02/24 07:56:52;;;;;;;10.50;5.45;;;4.60;99.90;;;;;;5008395;28;20037;-80
2024/02/24 07:59:18;;;;;;;9.70;6.28;;;4.60;99.90;;;;;;5007738;28;20061;-80
2024/02/24 08:01:44;;;;;;;10.50;6.63;;;4.30;99.90;;;;;;5008208;28;20669;-80
2024/02/24 08:04:09;;;;;;;9.80;6.03;;;4.20;99.90;;;;;;5006158;28;20598;-80
2024/02/24 08:06:35;;;;;;;10.93;6.20;;;4.20;99.90;;;;;;5008024;28;20037;-80
2024/02/24 08:09:01;;;;;;;11.57;7.03;;;4.20;99.90;;;;;;5006243;28;20080;-79
2024/02/24 08:11:29;;;;;;;12.10;7.90;;;4.20;99.90;;;;;;5007489;28;20037;-80
2024/02/24 08:13:55;;;;;;;11.38;7.40;;;4.30;99.90;;;;;;5008213;28;20034;-80
2024/02/24 08:16:24;;;;;;;13.77;7.60;;;4.30;99.90;;;;;;5009450;28;20404;-80
2024/02/24 08:18:49;;;;;;;11.07;7.68;;;4.20;99.90;;;;;;5007478;28;20159;-81
2024/02/24 08:21:15;;;;;;;11.35;7.75;;;4.20;99.90;;;;;;5006856;28;20041;-80
2024/02/24 08:23:41;;;;;;;13.82;9.40;;;4.20;99.90;;;;;;5007766;28;20037;-80
2024/02/24 08:26:07;;;;;;;12.35;8.02;;;4.20;99.90;;;;;;5006471;28;20510;-80
2024/02/24 08:28:32;;;;;;;12.90;7.55;;;4.20;99.90;;;;;;5008322;28;20128;-81
2024/02/24 08:31:01;;;;;;;10.82;6.70;;;4.10;99.90;;;;;;5009925;28;20668;-80
2024/02/24 08:33:27;;;;;;;11.45;6.82;;;4.10;99.90;;;;;;5005145;28;20033;-79
2024/02/24 08:35:53;;;;;;;11.07;6.53;;;4.20;99.90;;;;;;5005672;28;20034;-82
2024/02/24 08:38:18;;;;;;;9.13;5.93;;;4.20;99.90;;;;;;5008812;28;20480;-79
2024/02/24 08:40:44;;;;;;;9.13;5.78;;;4.20;99.90;;;;;;5005793;28;20634;-78
2024/02/24 08:43:11;;;;;;;8.88;6.07;;;4.30;99.90;;;;;;5008705;28;20454;-79
2024/02/24 08:45:36;;;;;;;10.13;6.20;;;4.40;99.90;;;;;;5006580;28;21754;-76
2024/02/24 08:48:02;;;;;;;11.13;6.78;;;4.30;99.90;;;;;;5006325;28;21022;-78
2024/02/24 08:50:28;;;;;;;9.20;5.53;;;4.20;99.90;;;;;;5007825;28;20045;-77
2024/02/24 08:52:53;;;;;;;9.80;5.95;;;4.30;99.90;;;;;;4995008;28;20620;-77
2024/02/24 08:55:19;;;;;;;6.75;4.10;;;4.30;99.90;;;;;;5000191;28;20033;-78
2024/02/24 08:57:45;;;;;;;6.43;3.67;;;4.40;99.90;;;;;;4998398;28;20049;-80
2024/02/24 09:00:12;;;;;;;6.57;4.10;;;4.50;99.90;;;;;;4993287;28;20036;-81
2024/02/24 09:02:38;;;;;;;7.40;4.07;;;4.50;99.90;;;;;;5006189;28;20057;-77
2024/02/24 09:05:04;;;;;;;8.60;5.25;;;4.60;99.90;;;;;;5006807;28;20041;-77
2024/02/24 09:07:30;;;;;;;8.02;4.78;;;4.70;99.90;;;;;;5008237;28;20045;-78
2024/02/24 09:09:56;;;;;;;7.95;4.43;;;4.70;99.90;;;;;;5006134;28;20123;-78
2024/02/24 09:12:22;;;;;;;7.93;4.70;;;4.80;99.90;;;;;;5006758;28;20930;-77
2024/02/24 09:14:47;;;;;;;6.80;3.95;;;4.90;99.90;;;;;;5008185;28;20042;-78
2024/02/24 09:17:13;;;;;;;7.65;4.07;;;5.00;99.90;;;;;;5006908;28;22135;-78
2024/02/24 09:19:42;;;;;;;6.28;3.78;;;5.10;99.90;;;;;;5006660;28;21243;-78
2024/02/24 09:22:11;;;;;;;6.10;3.58;;;5.10;99.90;;;;;;5007420;28;20034;-79
2024/02/24 09:24:37;;;;;;;4.70;2.90;;;5.10;99.90;;;;;;5005863;28;20045;-78
2024/02/24 09:27:02;;;;;;;4.32;2.55;;;5.10;99.90;;;;;;5009161;28;20545;-80
2024/02/24 09:29:28;;;;;;;4.50;2.03;;;5.30;99.90;;;;;;5008845;28;21325;-81
2024/02/24 09:31:54;;;;;;;4.97;2.45;;;5.30;99.90;;;;;;5014259;28;20040;-78
2024/02/24 09:34:20;;;;;;;9.07;4.20;;;5.40;99.90;;;;;;5010462;28;20045;-79
2024/02/24 09:36:45;;;;;;;7.38;4.95;;;5.70;99.90;;;;;;5011188;28;20071;-77
2024/02/24 09:39:13;;;;;;;7.80;5.18;;;5.70;99.90;;;;;;5008749;28;20042;-77
2024/02/24 09:41:39;;;;;;;6.05;3.92;;;5.50;99.90;;;;;;5010577;28;20135;-80
2024/02/24 09:44:05;;;;;;;7.72;4.65;;;5.20;99.90;;;;;;5011948;28;20041;-79
2024/02/24 09:46:33;;;;;;;7.65;4.13;;;5.30;99.90;;;;;;5010045;28;20033;-79
2024/02/24 09:49:00;;;;;;;7.88;4.68;;;5.50;99.90;;;;;;5012344;28;20106;-79
2024/02/24 09:51:27;;;;;;;7.55;4.60;;;5.30;99.90;;;;;;5015219;28;20033;-79
2024/02/24 09:53:53;;;;;;;6.15;4.10;;;5.20;99.90;;;;;;5015895;28;20041;-79
2024/02/24 09:56:22;;;;;;;6.57;4.15;;;5.40;99.90;;;;;;5013678;28;20033;-79
2024/02/24 09:58:49;;;;;;;7.82;3.95;;;5.60;99.90;;;;;;5015664;28;20033;-79
2024/02/24 10:01:15;;;;;;;5.35;3.38;;;5.60;99.90;;;;;;5014685;28;20549;-78
2024/02/24 10:03:42;;;;;;;6.28;3.90;;;5.50;99.90;;;;;;5013795;28;20037;-79
2024/02/24 10:06:11;;;;;;;6.63;4.82;;;5.40;99.90;;;;;;5013012;28;20041;-79
2024/02/24 10:08:38;;;;;;;6.53;5.03;;;5.60;99.90;;;;;;5014489;28;20052;-79
2024/02/24 10:11:04;;;;;;;7.43;4.55;;;5.50;99.90;;;;;;5014014;28;20034;-79
2024/02/24 10:13:35;;;;;;;9.05;5.05;;;5.40;99.90;;;;;;5014524;28;20505;-79
2024/02/24 10:16:11;;;;;;;6.70;4.07;;;5.40;99.90;;;;;;5015218;28;20057;-79
2024/02/24 10:18:40;;;;;;;6.80;4.15;;;5.30;99.90;;;;;;5013101;28;20034;-79
2024/02/24 10:21:06;;;;;;;6.00;3.92;;;5.30;99.90;;;;;;5010312;28;20150;-79
2024/02/24 10:23:32;;;;;;;7.45;4.97;;;5.30;99.90;;;;;;5013625;28;20037;-79
2024/02/24 10:25:58;;;;;;;9.02;5.20;;;5.20;99.90;;;;;;5013929;28;20053;-78
2024/02/24 10:28:26;;;;;;;7.25;5.18;;;5.30;99.90;;;;;;5014934;28;20044;-79
2024/02/24 10:30:52;;;;;;;8.38;5.50;;;5.50;99.90;;;;;;5007272;28;20160;-79
2024/02/24 10:33:18;;;;;;;7.05;4.35;;;5.40;99.90;;;;;;5013785;28;20038;-79
2024/02/24 10:35:46;;;;;;;6.00;3.97;;;5.70;99.90;;;;;;5014205;28;20387;-78
2024/02/24 10:38:13;;;;;;;7.53;4.03;;;5.50;99.90;;;;;;5010363;28;20053;-79
2024/02/24 10:40:42;;;;;;;7.07;4.25;;;5.50;99.90;;;;;;5014562;28;20017;-79
2024/02/24 10:43:08;;;;;;;6.07;3.72;;;5.60;99.90;;;;;;5013497;28;20045;-79
2024/02/24 10:45:34;;;;;;;5.72;3.80;;;5.70;99.90;;;;;;5014429;28;21338;-78
2024/02/24 10:48:00;;;;;;;5.43;3.63;;;5.80;99.90;;;;;;5015765;28;20614;-79
2024/02/24 10:50:25;;;;;;;5.85;3.83;;;6.00;99.90;;;;;;5012630;28;20041;-79
2024/02/24 10:52:53;;;;;;;7.15;3.50;;;6.10;99.90;;;;;;5015636;28;20053;-79
2024/02/24 10:55:22;;;;;;;7.50;5.07;;;6.10;99.90;;;;;;4996830;28;20454;-79
2024/02/24 10:57:52;;;;;;;6.55;4.55;;;6.00;99.90;;;;;;5012851;28;20029;-78
2024/02/24 11:00:25;;;;;;;5.82;3.92;;;5.90;99.90;;;;;;5018788;28;20120;-78
2024/02/24 11:02:51;;;;;;;6.53;4.95;;;5.90;99.90;;;;;;5016864;28;20064;-79
2024/02/24 11:05:18;;;;;;;7.22;4.55;;;5.90;99.90;;;;;;5015829;28;20036;-79
2024/02/24 11:07:43;;;;;;;5.95;3.83;;;6.00;99.90;;;;;;5020426;28;20038;-77
2024/02/24 11:10:19;;;;;;;6.32;3.63;;;6.10;99.90;;;;;;5012633;28;20064;-82
2024/02/24 11:12:47;;;;;;;5.63;3.17;;;7.20;99.90;;;;;;5015409;28;20471;-82
2024/02/24 11:15:18;;;;;;;5.25;2.75;;;7.60;99.90;;;;;;5014684;28;20044;-81
2024/02/24 11:17:45;;;;;;;6.38;3.17;;;6.90;99.90;;;;;;5015614;28;20025;-79
2024/02/24 11:20:12;;;;;;;7.13;4.40;;;6.70;99.90;;;;;;5013842;28;20037;-81
2024/02/24 11:22:37;;;;;;;6.05;3.88;;;6.50;99.90;;;;;;5013898;28;20152;-79
2024/02/24 11:25:04;;;;;;;6.32;4.25;;;6.50;99.90;;;;;;5014919;28;20475;-81
2024/02/24 11:27:32;;;;;;;9.02;5.40;;;6.40;99.90;;;;;;5016200;28;20032;-80
2024/02/24 11:29:58;;;;;;;7.43;4.70;;;6.30;99.90;;;;;;5017787;28;20480;-80
2024/02/24 11:32:24;;;;;;;7.35;5.30;;;6.30;99.90;;;;;;5014776;28;20369;-79
2024/02/24 11:34:50;;;;;;;10.32;6.72;;;6.20;99.90;;;;;;5015202;28;20534;-79
2024/02/24 11:37:17;;;;;;;7.60;5.63;;;6.30;99.90;;;;;;5016485;28;20124;-80
2024/02/24 11:39:44;;;;;;;8.10;5.57;;;6.40;99.90;;;;;;5011542;28;20100;-79
2024/02/24 11:42:13;;;;;;;7.63;4.95;;;6.50;99.90;;;;;;5013280;28;20483;-78
2024/02/24 11:44:44;;;;;;;7.03;5.15;;;6.70;99.90;;;;;;5013105;28;20908;-81
2024/02/24 11:47:09;;;;;;;7.60;5.68;;;6.70;99.90;;;;;;5013414;28;20358;-80
2024/02/24 11:49:42;;;;;;;7.38;5.40;;;6.90;99.90;;;;;;5014186;28;20053;-79
2024/02/24 11:52:08;;;;;;;7.55;4.95;;;6.90;99.90;;;;;;5013091;28;20044;-80
2024/02/24 11:54:35;;;;;;;6.65;4.57;;;6.80;99.90;;;;;;5014940;28;20439;-79
2024/02/24 11:57:01;;;;;;;7.63;4.93;;;6.90;99.90;;;;;;5012388;28;20480;-80
2024/02/24 11:59:28;;;;;;;6.82;4.75;;;6.80;99.90;;;;;;5014656;28;20033;-78
2024/02/24 12:01:54;;;;;;;7.50;4.93;;;6.70;99.90;;;;;;5014506;28;20028;-79
2024/02/24 12:04:25;;;;;;;6.32;4.45;;;6.60;99.90;;;;;;5012737;28;20881;-78
2024/02/24 12:06:51;;;;;;;6.97;4.43;;;6.70;99.90;;;;;;5015932;28;20080;-80
2024/02/24 12:09:17;;;;;;;7.72;5.05;;;6.70;99.90;;;;;;5014357;28;20081;-80
2024/02/24 12:11:43;;;;;;;9.15;5.47;;;6.70;99.90;;;;;;5012572;28;20034;-83
2024/02/24 12:14:09;;;;;;;9.25;5.18;;;6.90;99.90;;;;;;5013941;28;20753;-79
2024/02/24 12:16:36;;;;;;;7.05;4.88;;;7.00;99.90;;;;;;5014720;28;20038;-81
2024/02/24 12:19:04;;;;;;;9.25;5.90;;;7.10;99.90;;;;;;5016089;28;20089;-80
2024/02/24 12:21:30;;;;;;;7.75;5.35;;;7.40;99.90;;;;;;5015212;28;20052;-80
2024/02/24 12:23:59;;;;;;;9.05;5.65;;;7.40;99.90;;;;;;5014645;28;20042;-80
2024/02/24 12:26:25;;;;;;;9.93;6.32;;;7.30;99.90;;;;;;5015509;28;20029;-81
2024/02/24 12:28:51;;;;;;;9.55;6.25;;;7.50;99.90;;;;;;5017473;28;20087;-79
2024/02/24 12:31:17;;;;;;;10.98;5.93;;;7.40;99.90;;;;;;5015956;28;20029;-80
2024/02/24 12:33:45;;;;;;;11.63;6.18;;;7.40;99.90;;;;;;5012940;28;20434;-80
2024/02/24 12:36:12;;;;;;;10.15;5.70;;;7.40;99.90;;;;;;5013166;28;20390;-81
2024/02/24 12:38:38;;;;;;;9.25;5.82;;;7.20;99.90;;;;;;5013591;28;20029;-80
2024/02/24 12:41:12;;;;;;;8.63;4.97;;;7.10;99.90;;;;;;5015704;28;20476;-80
2024/02/24 12:43:39;;;;;;;5.60;3.50;;;7.40;99.90;;;;;;5012914;28;20122;-79
2024/02/24 12:46:06;;;;;;;7.25;4.85;;;7.80;99.90;;;;;;5011184;28;20026;-79
2024/02/24 12:48:32;;;;;;;8.63;4.22;;;8.80;99.90;;;;;;5015424;28;20475;-79
2024/02/24 12:50:58;;;;;;;6.82;4.07;;;8.20;99.90;;;;;;5014565;28;21415;-79